sensor_id;sensor_type;location;lat;lon;timestamp;temperature;humidity
81212;DHT22;70686;52.494;13.420;2023-10-08T00:01:29;13.20;87.50
81212;DHT22;70686;52.494;13.420;2023-10-08T00:03:55;13.20;87.80
81212;DHT22;70686;52.494;13.420;2023-10-08T00:06:26;13.10;88.60
81212;DHT22;70686;52.494;13.420;2023-10-08T00:08:52;13.20;88.30
81212;DHT22;70686;52.494;13.420;2023-10-08T00:11:25;13.30;88.10
81212;DHT22;70686;52.494;13.420;2023-10-08T00:13:51;13.40;86.30
81212;DHT22;70686;52.494;13.420;2023-10-08T00:16:21;13.30;86.80
81212;DHT22;70686;52.494;13.420;2023-10-08T00:18:48;13.10;88.70
81212;DHT22;70686;52.494;13.420;2023-10-08T00:21:17;13.20;88.60
81212;DHT22;70686;52.494;13.420;2023-10-08T00:23:45;13.30;86.90
81212;DHT22;70686;52.494;13.420;2023-10-08T00:26:18;13.40;86.00
81212;DHT22;70686;52.494;13.420;2023-10-08T00:29:02;13.30;86.70
81212;DHT22;70686;52.494;13.420;2023-10-08T00:31:47;13.30;87.30
81212;DHT22;70686;52.494;13.420;2023-10-08T00:34:18;13.40;86.40
81212;DHT22;70686;52.494;13.420;2023-10-08T00:36:47;13.40;86.60
81212;DHT22;70686;52.494;13.420;2023-10-08T00:39:15;13.40;86.20
81212;DHT22;70686;52.494;13.420;2023-10-08T00:41:48;13.40;86.70
81212;DHT22;70686;52.494;13.420;2023-10-08T00:44:14;13.30;86.70
81212;DHT22;70686;52.494;13.420;2023-10-08T00:47:03;13.40;86.80
81212;DHT22;70686;52.494;13.420;2023-10-08T00:49:30;13.40;86.00
81212;DHT22;70686;52.494;13.420;2023-10-08T00:52:09;13.30;86.20
81212;DHT22;70686;52.494;13.420;2023-10-08T00:54:37;13.40;86.20
81212;DHT22;70686;52.494;13.420;2023-10-08T00:57:22;13.30;87.00
81212;DHT22;70686;52.494;13.420;2023-10-08T00:59:49;13.20;87.40
81212;DHT22;70686;52.494;13.420;2023-10-08T01:02:26;13.20;86.60
81212;DHT22;70686;52.494;13.420;2023-10-08T01:04:54;13.40;85.90
81212;DHT22;70686;52.494;13.420;2023-10-08T01:07:21;13.30;85.60
81212;DHT22;70686;52.494;13.420;2023-10-08T01:09:49;13.30;85.70
81212;DHT22;70686;52.494;13.420;2023-10-08T01:12:41;13.30;86.30
81212;DHT22;70686;52.494;13.420;2023-10-08T01:15:19;13.40;85.00
81212;DHT22;70686;52.494;13.420;2023-10-08T01:17:50;13.40;85.10
81212;DHT22;70686;52.494;13.420;2023-10-08T01:20:30;13.30;86.10
81212;DHT22;70686;52.494;13.420;2023-10-08T01:23:16;13.30;86.20
81212;DHT22;70686;52.494;13.420;2023-10-08T01:25:46;13.40;86.20
81212;DHT22;70686;52.494;13.420;2023-10-08T01:28:23;13.40;85.20
81212;DHT22;70686;52.494;13.420;2023-10-08T01:30:56;13.40;85.40
81212;DHT22;70686;52.494;13.420;2023-10-08T01:33:26;13.20;86.10
81212;DHT22;70686;52.494;13.420;2023-10-08T01:35:53;13.10;87.20
81212;DHT22;70686;52.494;13.420;2023-10-08T01:38:19;13.10;87.40
81212;DHT22;70686;52.494;13.420;2023-10-08T01:40:50;13.00;87.50
81212;DHT22;70686;52.494;13.420;2023-10-08T01:43:19;13.10;87.00
81212;DHT22;70686;52.494;13.420;2023-10-08T01:45:45;13.10;86.60
81212;DHT22;70686;52.494;13.420;2023-10-08T01:48:15;13.00;87.00
81212;DHT22;70686;52.494;13.420;2023-10-08T01:50:55;12.90;87.40
81212;DHT22;70686;52.494;13.420;2023-10-08T01:53:27;12.80;88.10
81212;DHT22;70686;52.494;13.420;2023-10-08T01:55:53;12.80;88.20
81212;DHT22;70686;52.494;13.420;2023-10-08T01:58:21;12.70;89.30
81212;DHT22;70686;52.494;13.420;2023-10-08T02:00:48;12.70;88.70
81212;DHT22;70686;52.494;13.420;2023-10-08T02:03:15;12.80;88.70
81212;DHT22;70686;52.494;13.420;2023-10-08T02:05:45;12.90;88.10
81212;DHT22;70686;52.494;13.420;2023-10-08T02:08:12;12.90;87.50
81212;DHT22;70686;52.494;13.420;2023-10-08T02:10:39;12.90;87.70
81212;DHT22;70686;52.494;13.420;2023-10-08T02:13:07;12.90;88.00
81212;DHT22;70686;52.494;13.420;2023-10-08T02:15:34;12.70;88.10
81212;DHT22;70686;52.494;13.420;2023-10-08T02:18:00;12.70;88.90
81212;DHT22;70686;52.494;13.420;2023-10-08T02:20:25;12.60;89.40
81212;DHT22;70686;52.494;13.420;2023-10-08T02:22:53;12.80;88.10
81212;DHT22;70686;52.494;13.420;2023-10-08T02:25:19;12.90;88.10
81212;DHT22;70686;52.494;13.420;2023-10-08T02:27:45;12.80;88.80
81212;DHT22;70686;52.494;13.420;2023-10-08T02:30:11;12.80;88.70
81212;DHT22;70686;52.494;13.420;2023-10-08T02:32:38;12.80;88.80
81212;DHT22;70686;52.494;13.420;2023-10-08T02:35:05;12.90;87.80
81212;DHT22;70686;52.494;13.420;2023-10-08T02:37:31;13.00;87.20
81212;DHT22;70686;52.494;13.420;2023-10-08T02:39:58;13.20;86.30
81212;DHT22;70686;52.494;13.420;2023-10-08T02:42:24;13.20;86.30
81212;DHT22;70686;52.494;13.420;2023-10-08T02:44:49;13.10;86.60
81212;DHT22;70686;52.494;13.420;2023-10-08T02:47:16;13.10;86.80
81212;DHT22;70686;52.494;13.420;2023-10-08T02:49:46;13.10;86.30
81212;DHT22;70686;52.494;13.420;2023-10-08T02:52:14;13.20;85.30
81212;DHT22;70686;52.494;13.420;2023-10-08T02:54:41;13.20;85.30
81212;DHT22;70686;52.494;13.420;2023-10-08T02:57:07;13.20;85.70
81212;DHT22;70686;52.494;13.420;2023-10-08T02:59:40;13.20;85.50
81212;DHT22;70686;52.494;13.420;2023-10-08T03:02:07;13.30;85.00
81212;DHT22;70686;52.494;13.420;2023-10-08T03:04:43;13.30;85.90
81212;DHT22;70686;52.494;13.420;2023-10-08T03:07:16;13.30;84.70
81212;DHT22;70686;52.494;13.420;2023-10-08T03:09:58;13.20;84.70
81212;DHT22;70686;52.494;13.420;2023-10-08T03:12:44;13.20;85.20
81212;DHT22;70686;52.494;13.420;2023-10-08T03:15:12;13.10;85.10
81212;DHT22;70686;52.494;13.420;2023-10-08T03:17:38;13.00;85.80
81212;DHT22;70686;52.494;13.420;2023-10-08T03:20:15;12.90;86.50
81212;DHT22;70686;52.494;13.420;2023-10-08T03:22:56;13.10;85.90
81212;DHT22;70686;52.494;13.420;2023-10-08T03:25:22;13.10;85.10
81212;DHT22;70686;52.494;13.420;2023-10-08T03:27:50;13.20;85.30
81212;DHT22;70686;52.494;13.420;2023-10-08T03:30:16;13.20;84.80
81212;DHT22;70686;52.494;13.420;2023-10-08T03:32:42;13.30;83.70
81212;DHT22;70686;52.494;13.420;2023-10-08T03:35:10;13.30;83.50
81212;DHT22;70686;52.494;13.420;2023-10-08T03:37:36;13.30;83.50
81212;DHT22;70686;52.494;13.420;2023-10-08T03:40:08;13.30;83.40
81212;DHT22;70686;52.494;13.420;2023-10-08T03:42:51;13.30;83.30
81212;DHT22;70686;52.494;13.420;2023-10-08T03:45:17;13.30;83.80
81212;DHT22;70686;52.494;13.420;2023-10-08T03:48:02;13.30;83.60
81212;DHT22;70686;52.494;13.420;2023-10-08T03:50:32;13.30;83.90
81212;DHT22;70686;52.494;13.420;2023-10-08T03:53:07;13.30;83.20
81212;DHT22;70686;52.494;13.420;2023-10-08T03:55:40;13.20;83.40
81212;DHT22;70686;52.494;13.420;2023-10-08T03:58:10;13.30;82.80
81212;DHT22;70686;52.494;13.420;2023-10-08T04:00:43;13.20;83.10
81212;DHT22;70686;52.494;13.420;2023-10-08T04:03:11;13.20;83.00
81212;DHT22;70686;52.494;13.420;2023-10-08T04:05:40;13.30;82.70
81212;DHT22;70686;52.494;13.420;2023-10-08T04:08:10;13.30;82.50
81212;DHT22;70686;52.494;13.420;2023-10-08T04:10:55;13.20;82.70
81212;DHT22;70686;52.494;13.420;2023-10-08T04:13:34;13.20;83.10
81212;DHT22;70686;52.494;13.420;2023-10-08T04:16:04;13.00;83.50
81212;DHT22;70686;52.494;13.420;2023-10-08T04:18:30;12.90;84.20
81212;DHT22;70686;52.494;13.420;2023-10-08T04:20:55;13.00;83.80
81212;DHT22;70686;52.494;13.420;2023-10-08T04:23:25;13.00;84.00
81212;DHT22;70686;52.494;13.420;2023-10-08T04:25:51;12.90;84.10
81212;DHT22;70686;52.494;13.420;2023-10-08T04:28:20;12.90;85.40
81212;DHT22;70686;52.494;13.420;2023-10-08T04:30:47;13.00;84.20
81212;DHT22;70686;52.494;13.420;2023-10-08T04:33:18;13.00;84.00
81212;DHT22;70686;52.494;13.420;2023-10-08T04:35:45;13.10;83.40
81212;DHT22;70686;52.494;13.420;2023-10-08T04:38:20;13.10;83.20
81212;DHT22;70686;52.494;13.420;2023-10-08T04:40:48;13.10;83.00
81212;DHT22;70686;52.494;13.420;2023-10-08T04:43:18;13.10;83.10
81212;DHT22;70686;52.494;13.420;2023-10-08T04:45:57;13.10;83.30
81212;DHT22;70686;52.494;13.420;2023-10-08T04:48:26;13.10;83.40
81212;DHT22;70686;52.494;13.420;2023-10-08T04:50:58;13.00;83.50
81212;DHT22;70686;52.494;13.420;2023-10-08T04:53:28;12.90;84.30
81212;DHT22;70686;52.494;13.420;2023-10-08T04:56:01;12.70;85.00
81212;DHT22;70686;52.494;13.420;2023-10-08T04:58:45;12.70;85.90
81212;DHT22;70686;52.494;13.420;2023-10-08T05:01:18;12.70;84.70
81212;DHT22;70686;52.494;13.420;2023-10-08T05:03:50;12.60;85.60
81212;DHT22;70686;52.494;13.420;2023-10-08T05:06:29;12.70;84.90
81212;DHT22;70686;52.494;13.420;2023-10-08T05:11:50;12.70;84.30
81212;DHT22;70686;52.494;13.420;2023-10-08T05:14:25;12.70;84.90
81212;DHT22;70686;52.494;13.420;2023-10-08T05:17:05;12.60;84.80
81212;DHT22;70686;52.494;13.420;2023-10-08T05:19:57;12.60;84.80
81212;DHT22;70686;52.494;13.420;2023-10-08T05:22:28;12.60;85.00
81212;DHT22;70686;52.494;13.420;2023-10-08T05:24:58;12.50;85.60
81212;DHT22;70686;52.494;13.420;2023-10-08T05:27:43;12.50;85.20
81212;DHT22;70686;52.494;13.420;2023-10-08T05:30:21;12.40;85.80
81212;DHT22;70686;52.494;13.420;2023-10-08T05:32:59;12.50;85.70
81212;DHT22;70686;52.494;13.420;2023-10-08T05:35:49;12.40;85.80
81212;DHT22;70686;52.494;13.420;2023-10-08T05:38:17;12.50;85.70
81212;DHT22;70686;52.494;13.420;2023-10-08T05:41:03;12.50;86.00
81212;DHT22;70686;52.494;13.420;2023-10-08T05:43:33;12.40;86.10
81212;DHT22;70686;52.494;13.420;2023-10-08T05:46:05;12.50;86.20
81212;DHT22;70686;52.494;13.420;2023-10-08T05:48:50;12.50;85.70
81212;DHT22;70686;52.494;13.420;2023-10-08T05:51:34;12.50;85.60
81212;DHT22;70686;52.494;13.420;2023-10-08T05:54:32;12.30;86.10
81212;DHT22;70686;52.494;13.420;2023-10-08T05:56:59;12.40;85.90
81212;DHT22;70686;52.494;13.420;2023-10-08T05:59:44;12.40;86.10
81212;DHT22;70686;52.494;13.420;2023-10-08T06:02:40;12.40;86.20
81212;DHT22;70686;52.494;13.420;2023-10-08T06:05:10;12.40;86.00
81212;DHT22;70686;52.494;13.420;2023-10-08T06:10:17;12.60;84.80
81212;DHT22;70686;52.494;13.420;2023-10-08T06:13:01;12.50;85.40
81212;DHT22;70686;52.494;13.420;2023-10-08T06:15:41;12.60;85.60
81212;DHT22;70686;52.494;13.420;2023-10-08T06:18:30;12.60;85.30
81212;DHT22;70686;52.494;13.420;2023-10-08T06:21:06;12.70;84.20
81212;DHT22;70686;52.494;13.420;2023-10-08T06:23:40;12.70;83.80
81212;DHT22;70686;52.494;13.420;2023-10-08T06:26:07;12.80;83.40
81212;DHT22;70686;52.494;13.420;2023-10-08T06:28:38;12.90;82.60
81212;DHT22;70686;52.494;13.420;2023-10-08T06:31:05;12.90;82.10
81212;DHT22;70686;52.494;13.420;2023-10-08T06:33:38;12.90;82.00
81212;DHT22;70686;52.494;13.420;2023-10-08T06:36:04;13.00;81.60
81212;DHT22;70686;52.494;13.420;2023-10-08T06:38:43;13.00;81.20
81212;DHT22;70686;52.494;13.420;2023-10-08T06:41:18;13.10;80.60
81212;DHT22;70686;52.494;13.420;2023-10-08T06:43:45;13.20;79.40
81212;DHT22;70686;52.494;13.420;2023-10-08T06:46:37;13.20;79.60
81212;DHT22;70686;52.494;13.420;2023-10-08T06:49:07;13.20;79.30
81212;DHT22;70686;52.494;13.420;2023-10-08T06:51:37;13.20;79.80
81212;DHT22;70686;52.494;13.420;2023-10-08T06:54:03;13.20;79.60
81212;DHT22;70686;52.494;13.420;2023-10-08T06:56:29;13.10;79.20
81212;DHT22;70686;52.494;13.420;2023-10-08T06:58:56;13.30;79.00
81212;DHT22;70686;52.494;13.420;2023-10-08T07:01:24;13.40;77.90
81212;DHT22;70686;52.494;13.420;2023-10-08T07:03:54;13.40;76.90
81212;DHT22;70686;52.494;13.420;2023-10-08T07:06:29;13.40;77.10
81212;DHT22;70686;52.494;13.420;2023-10-08T07:09:00;13.40;77.20
81212;DHT22;70686;52.494;13.420;2023-10-08T07:11:33;13.40;76.80
81212;DHT22;70686;52.494;13.420;2023-10-08T07:14:01;13.30;73.40
81212;DHT22;70686;52.494;13.420;2023-10-08T07:16:30;13.30;75.30
81212;DHT22;70686;52.494;13.420;2023-10-08T07:18:56;13.40;73.80
81212;DHT22;70686;52.494;13.420;2023-10-08T07:21:28;13.50;71.40
81212;DHT22;70686;52.494;13.420;2023-10-08T07:23:57;13.50;71.60
81212;DHT22;70686;52.494;13.420;2023-10-08T07:26:29;13.60;71.50
81212;DHT22;70686;52.494;13.420;2023-10-08T07:29:06;13.70;70.60
81212;DHT22;70686;52.494;13.420;2023-10-08T07:31:38;13.80;70.50
81212;DHT22;70686;52.494;13.420;2023-10-08T07:34:07;13.70;71.10
81212;DHT22;70686;52.494;13.420;2023-10-08T07:36:45;13.80;70.70
81212;DHT22;70686;52.494;13.420;2023-10-08T07:39:19;13.90;69.40
81212;DHT22;70686;52.494;13.420;2023-10-08T07:41:53;13.90;69.00
81212;DHT22;70686;52.494;13.420;2023-10-08T07:44:22;13.90;69.00
81212;DHT22;70686;52.494;13.420;2023-10-08T07:46:49;14.00;67.80
81212;DHT22;70686;52.494;13.420;2023-10-08T07:49:16;14.00;68.00
81212;DHT22;70686;52.494;13.420;2023-10-08T07:51:42;14.10;67.30
81212;DHT22;70686;52.494;13.420;2023-10-08T07:54:17;14.10;68.30
81212;DHT22;70686;52.494;13.420;2023-10-08T07:56:47;14.20;67.20
81212;DHT22;70686;52.494;13.420;2023-10-08T07:59:14;14.20;67.20
81212;DHT22;70686;52.494;13.420;2023-10-08T08:01:43;14.40;66.70
81212;DHT22;70686;52.494;13.420;2023-10-08T08:04:12;14.50;66.70
81212;DHT22;70686;52.494;13.420;2023-10-08T08:06:48;14.50;66.20
81212;DHT22;70686;52.494;13.420;2023-10-08T08:09:18;14.30;66.00
81212;DHT22;70686;52.494;13.420;2023-10-08T08:11:48;14.30;66.70
81212;DHT22;70686;52.494;13.420;2023-10-08T08:14:16;14.60;65.20
81212;DHT22;70686;52.494;13.420;2023-10-08T08:16:45;14.60;64.20
81212;DHT22;70686;52.494;13.420;2023-10-08T08:19:15;14.70;63.70
81212;DHT22;70686;52.494;13.420;2023-10-08T08:21:42;14.70;64.80
81212;DHT22;70686;52.494;13.420;2023-10-08T08:24:14;14.60;65.70
81212;DHT22;70686;52.494;13.420;2023-10-08T08:26:57;14.70;64.60
81212;DHT22;70686;52.494;13.420;2023-10-08T08:29:37;14.80;63.50
81212;DHT22;70686;52.494;13.420;2023-10-08T08:32:14;14.90;62.20
81212;DHT22;70686;52.494;13.420;2023-10-08T08:34:44;14.90;62.90
81212;DHT22;70686;52.494;13.420;2023-10-08T08:37:11;14.80;63.70
81212;DHT22;70686;52.494;13.420;2023-10-08T08:39:38;15.10;61.20
81212;DHT22;70686;52.494;13.420;2023-10-08T08:42:04;15.30;61.20
81212;DHT22;70686;52.494;13.420;2023-10-08T08:44:31;15.20;61.70
81212;DHT22;70686;52.494;13.420;2023-10-08T08:47:00;15.10;62.20
81212;DHT22;70686;52.494;13.420;2023-10-08T08:49:33;15.20;57.70
81212;DHT22;70686;52.494;13.420;2023-10-08T08:52:00;15.50;57.30
81212;DHT22;70686;52.494;13.420;2023-10-08T08:54:27;15.50;58.00
81212;DHT22;70686;52.494;13.420;2023-10-08T08:56:56;15.50;59.50
81212;DHT22;70686;52.494;13.420;2023-10-08T08:59:26;15.40;59.60
81212;DHT22;70686;52.494;13.420;2023-10-08T09:01:53;15.30;60.30
81212;DHT22;70686;52.494;13.420;2023-10-08T09:04:27;15.40;61.30
81212;DHT22;70686;52.494;13.420;2023-10-08T09:06:54;15.40;59.80
81212;DHT22;70686;52.494;13.420;2023-10-08T09:09:20;15.40;59.40
81212;DHT22;70686;52.494;13.420;2023-10-08T09:11:49;15.60;58.60
81212;DHT22;70686;52.494;13.420;2023-10-08T09:14:22;15.70;58.10
81212;DHT22;70686;52.494;13.420;2023-10-08T09:16:48;15.60;57.60
81212;DHT22;70686;52.494;13.420;2023-10-08T09:19:15;15.70;56.60
81212;DHT22;70686;52.494;13.420;2023-10-08T09:22:05;15.80;56.40
81212;DHT22;70686;52.494;13.420;2023-10-08T09:24:35;15.80;57.30
81212;DHT22;70686;52.494;13.420;2023-10-08T09:27:11;15.80;55.60
81212;DHT22;70686;52.494;13.420;2023-10-08T09:29:41;16.00;53.20
81212;DHT22;70686;52.494;13.420;2023-10-08T09:32:12;16.10;54.10
81212;DHT22;70686;52.494;13.420;2023-10-08T09:34:48;16.00;54.60
81212;DHT22;70686;52.494;13.420;2023-10-08T09:37:17;16.10;55.00
81212;DHT22;70686;52.494;13.420;2023-10-08T09:39:43;16.00;54.90
81212;DHT22;70686;52.494;13.420;2023-10-08T09:42:11;15.90;56.00
81212;DHT22;70686;52.494;13.420;2023-10-08T09:44:38;16.00;56.60
81212;DHT22;70686;52.494;13.420;2023-10-08T09:47:08;16.10;55.40
81212;DHT22;70686;52.494;13.420;2023-10-08T09:50:01;16.40;52.00
81212;DHT22;70686;52.494;13.420;2023-10-08T09:52:32;16.40;47.90
81212;DHT22;70686;52.494;13.420;2023-10-08T09:55:10;16.10;49.70
81212;DHT22;70686;52.494;13.420;2023-10-08T09:57:38;15.90;48.90
81212;DHT22;70686;52.494;13.420;2023-10-08T10:00:05;16.00;48.20
81212;DHT22;70686;52.494;13.420;2023-10-08T10:02:44;16.00;48.20
81212;DHT22;70686;52.494;13.420;2023-10-08T10:05:19;16.00;47.10
81212;DHT22;70686;52.494;13.420;2023-10-08T10:07:49;16.10;45.10
81212;DHT22;70686;52.494;13.420;2023-10-08T10:10:32;16.00;46.80
81212;DHT22;70686;52.494;13.420;2023-10-08T10:13:06;16.10;45.40
81212;DHT22;70686;52.494;13.420;2023-10-08T10:15:39;16.10;45.00
81212;DHT22;70686;52.494;13.420;2023-10-08T10:18:16;16.10;46.50
81212;DHT22;70686;52.494;13.420;2023-10-08T10:23:44;16.50;45.40
81212;DHT22;70686;52.494;13.420;2023-10-08T10:31:41;16.20;43.40
81212;DHT22;70686;52.494;13.420;2023-10-08T10:34:13;16.20;43.60
81212;DHT22;70686;52.494;13.420;2023-10-08T10:36:42;16.10;44.20
81212;DHT22;70686;52.494;13.420;2023-10-08T10:39:09;16.20;44.60
81212;DHT22;70686;52.494;13.420;2023-10-08T10:41:45;16.30;46.10
81212;DHT22;70686;52.494;13.420;2023-10-08T10:44:12;16.30;45.80
81212;DHT22;70686;52.494;13.420;2023-10-08T10:46:43;16.40;45.20
81212;DHT22;70686;52.494;13.420;2023-10-08T10:49:19;16.50;44.00
81212;DHT22;70686;52.494;13.420;2023-10-08T10:51:50;16.70;43.50
81212;DHT22;70686;52.494;13.420;2023-10-08T10:54:25;16.70;43.20
81212;DHT22;70686;52.494;13.420;2023-10-08T10:56:53;16.60;42.30
81212;DHT22;70686;52.494;13.420;2023-10-08T10:59:33;16.40;42.50
81212;DHT22;70686;52.494;13.420;2023-10-08T11:02:04;16.40;42.90
81212;DHT22;70686;52.494;13.420;2023-10-08T11:04:37;16.40;43.40
81212;DHT22;70686;52.494;13.420;2023-10-08T11:07:19;16.40;43.20
81212;DHT22;70686;52.494;13.420;2023-10-08T11:09:49;16.30;43.20
81212;DHT22;70686;52.494;13.420;2023-10-08T11:12:18;16.00;44.30
81212;DHT22;70686;52.494;13.420;2023-10-08T11:14:48;16.20;43.50
81212;DHT22;70686;52.494;13.420;2023-10-08T11:17:22;16.40;41.40
81212;DHT22;70686;52.494;13.420;2023-10-08T11:19:48;16.30;41.70
81212;DHT22;70686;52.494;13.420;2023-10-08T11:22:14;16.30;41.10
81212;DHT22;70686;52.494;13.420;2023-10-08T11:24:45;16.50;40.90
81212;DHT22;70686;52.494;13.420;2023-10-08T11:27:13;16.50;41.00
81212;DHT22;70686;52.494;13.420;2023-10-08T11:29:45;16.70;40.40
81212;DHT22;70686;52.494;13.420;2023-10-08T11:32:12;16.70;39.30
81212;DHT22;70686;52.494;13.420;2023-10-08T11:34:39;16.70;38.70
81212;DHT22;70686;52.494;13.420;2023-10-08T11:37:05;16.60;40.30
81212;DHT22;70686;52.494;13.420;2023-10-08T11:39:45;16.50;40.40
81212;DHT22;70686;52.494;13.420;2023-10-08T11:42:11;16.70;40.60
81212;DHT22;70686;52.494;13.420;2023-10-08T11:45:15;16.60;39.80
81212;DHT22;70686;52.494;13.420;2023-10-08T11:47:47;16.60;40.90
81212;DHT22;70686;52.494;13.420;2023-10-08T11:50:25;16.60;42.50
81212;DHT22;70686;52.494;13.420;2023-10-08T11:52:59;16.70;42.80
81212;DHT22;70686;52.494;13.420;2023-10-08T11:55:28;16.60;42.20
81212;DHT22;70686;52.494;13.420;2023-10-08T11:57:54;16.60;42.20
81212;DHT22;70686;52.494;13.420;2023-10-08T12:00:28;16.60;42.30
81212;DHT22;70686;52.494;13.420;2023-10-08T12:02:54;16.90;41.50
81212;DHT22;70686;52.494;13.420;2023-10-08T12:05:21;17.10;40.40
81212;DHT22;70686;52.494;13.420;2023-10-08T12:07:51;17.10;39.60
81212;DHT22;70686;52.494;13.420;2023-10-08T12:10:17;17.00;40.70
81212;DHT22;70686;52.494;13.420;2023-10-08T12:12:54;17.00;40.50
81212;DHT22;70686;52.494;13.420;2023-10-08T12:15:23;16.90;40.40
81212;DHT22;70686;52.494;13.420;2023-10-08T12:17:52;17.10;39.60
81212;DHT22;70686;52.494;13.420;2023-10-08T12:20:39;17.10;40.70
81212;DHT22;70686;52.494;13.420;2023-10-08T12:23:09;16.90;42.90
81212;DHT22;70686;52.494;13.420;2023-10-08T12:25:39;16.90;41.30
81212;DHT22;70686;52.494;13.420;2023-10-08T12:28:05;16.90;41.80
81212;DHT22;70686;52.494;13.420;2023-10-08T12:30:31;16.90;42.50
81212;DHT22;70686;52.494;13.420;2023-10-08T12:32:58;16.80;43.00
81212;DHT22;70686;52.494;13.420;2023-10-08T12:35:25;17.00;42.60
81212;DHT22;70686;52.494;13.420;2023-10-08T12:37:51;17.20;42.50
81212;DHT22;70686;52.494;13.420;2023-10-08T12:40:16;17.30;41.40
81212;DHT22;70686;52.494;13.420;2023-10-08T12:42:57;17.30;42.10
81212;DHT22;70686;52.494;13.420;2023-10-08T12:45:24;17.20;41.30
81212;DHT22;70686;52.494;13.420;2023-10-08T12:47:53;17.30;39.70
81212;DHT22;70686;52.494;13.420;2023-10-08T12:50:21;17.60;40.50
81212;DHT22;70686;52.494;13.420;2023-10-08T12:52:58;17.90;41.00
81212;DHT22;70686;52.494;13.420;2023-10-08T12:55:29;18.30;41.60
81212;DHT22;70686;52.494;13.420;2023-10-08T12:57:56;18.70;40.20
81212;DHT22;70686;52.494;13.420;2023-10-08T13:00:31;18.90;40.10
81212;DHT22;70686;52.494;13.420;2023-10-08T13:02:57;19.40;37.60
81212;DHT22;70686;52.494;13.420;2023-10-08T13:05:23;19.90;37.90
81212;DHT22;70686;52.494;13.420;2023-10-08T13:07:57;19.90;37.60
81212;DHT22;70686;52.494;13.420;2023-10-08T13:10:29;20.10;36.60
81212;DHT22;70686;52.494;13.420;2023-10-08T13:12:56;19.60;38.10
81212;DHT22;70686;52.494;13.420;2023-10-08T13:15:23;19.90;36.50
81212;DHT22;70686;52.494;13.420;2023-10-08T13:17:52;19.90;36.00
81212;DHT22;70686;52.494;13.420;2023-10-08T13:20:18;20.30;35.80
81212;DHT22;70686;52.494;13.420;2023-10-08T13:22:48;20.40;35.00
81212;DHT22;70686;52.494;13.420;2023-10-08T13:25:14;20.80;35.10
81212;DHT22;70686;52.494;13.420;2023-10-08T13:27:42;20.70;34.90
81212;DHT22;70686;52.494;13.420;2023-10-08T13:30:09;20.30;35.40
81212;DHT22;70686;52.494;13.420;2023-10-08T13:32:35;20.20;35.70
81212;DHT22;70686;52.494;13.420;2023-10-08T13:35:05;20.40;35.70
81212;DHT22;70686;52.494;13.420;2023-10-08T13:37:35;20.00;36.00
81212;DHT22;70686;52.494;13.420;2023-10-08T13:40:01;19.50;36.90
81212;DHT22;70686;52.494;13.420;2023-10-08T13:42:27;18.50;38.90
81212;DHT22;70686;52.494;13.420;2023-10-08T13:44:53;18.10;39.70
81212;DHT22;70686;52.494;13.420;2023-10-08T13:47:20;17.60;40.70
81212;DHT22;70686;52.494;13.420;2023-10-08T13:49:50;17.10;41.70
81212;DHT22;70686;52.494;13.420;2023-10-08T13:52:16;16.80;42.50
81212;DHT22;70686;52.494;13.420;2023-10-08T13:54:42;16.90;43.00
81212;DHT22;70686;52.494;13.420;2023-10-08T13:57:16;17.00;41.60
81212;DHT22;70686;52.494;13.420;2023-10-08T13:59:44;17.10;42.10
81212;DHT22;70686;52.494;13.420;2023-10-08T14:02:10;17.00;41.90
81212;DHT22;70686;52.494;13.420;2023-10-08T14:04:43;17.10;42.40
81212;DHT22;70686;52.494;13.420;2023-10-08T14:07:12;17.50;41.80
81212;DHT22;70686;52.494;13.420;2023-10-08T14:09:42;18.20;40.50
81212;DHT22;70686;52.494;13.420;2023-10-08T14:12:11;18.80;39.20
81212;DHT22;70686;52.494;13.420;2023-10-08T14:14:37;19.20;37.40
81212;DHT22;70686;52.494;13.420;2023-10-08T14:17:07;19.20;36.90
81212;DHT22;70686;52.494;13.420;2023-10-08T14:19:35;19.70;37.00
81212;DHT22;70686;52.494;13.420;2023-10-08T14:22:17;20.40;36.30
81212;DHT22;70686;52.494;13.420;2023-10-08T14:24:47;20.90;34.60
81212;DHT22;70686;52.494;13.420;2023-10-08T14:27:26;21.00;35.00
81212;DHT22;70686;52.494;13.420;2023-10-08T14:30:03;20.80;34.80
81212;DHT22;70686;52.494;13.420;2023-10-08T14:32:30;20.70;35.50
81212;DHT22;70686;52.494;13.420;2023-10-08T14:34:59;20.60;36.10
81212;DHT22;70686;52.494;13.420;2023-10-08T14:37:43;20.40;35.90
81212;DHT22;70686;52.494;13.420;2023-10-08T14:40:30;20.20;37.20
81212;DHT22;70686;52.494;13.420;2023-10-08T14:43:14;20.50;36.40
81212;DHT22;70686;52.494;13.420;2023-10-08T14:45:41;20.80;35.70
81212;DHT22;70686;52.494;13.420;2023-10-08T14:48:08;21.10;34.70
81212;DHT22;70686;52.494;13.420;2023-10-08T14:50:36;20.80;34.70
81212;DHT22;70686;52.494;13.420;2023-10-08T14:53:04;20.50;35.90
81212;DHT22;70686;52.494;13.420;2023-10-08T14:55:31;19.80;38.30
81212;DHT22;70686;52.494;13.420;2023-10-08T14:57:59;19.50;37.50
81212;DHT22;70686;52.494;13.420;2023-10-08T15:00:31;19.40;37.40
81212;DHT22;70686;52.494;13.420;2023-10-08T15:02:57;19.50;38.00
81212;DHT22;70686;52.494;13.420;2023-10-08T15:05:28;19.90;36.80
81212;DHT22;70686;52.494;13.420;2023-10-08T15:07:54;20.20;36.50
81212;DHT22;70686;52.494;13.420;2023-10-08T15:10:20;20.30;36.00
81212;DHT22;70686;52.494;13.420;2023-10-08T15:12:49;20.20;36.00
81212;DHT22;70686;52.494;13.420;2023-10-08T15:15:17;19.90;36.10
81212;DHT22;70686;52.494;13.420;2023-10-08T15:17:44;19.60;36.70
81212;DHT22;70686;52.494;13.420;2023-10-08T15:20:11;19.30;37.30
81212;DHT22;70686;52.494;13.420;2023-10-08T15:22:43;18.90;38.30
81212;DHT22;70686;52.494;13.420;2023-10-08T15:25:13;18.60;38.80
81212;DHT22;70686;52.494;13.420;2023-10-08T15:27:40;18.30;39.10
81212;DHT22;70686;52.494;13.420;2023-10-08T15:30:10;17.80;40.80
81212;DHT22;70686;52.494;13.420;2023-10-08T15:32:42;17.60;41.20
81212;DHT22;70686;52.494;13.420;2023-10-08T15:35:12;17.30;42.40
81212;DHT22;70686;52.494;13.420;2023-10-08T15:37:40;17.20;42.30
81212;DHT22;70686;52.494;13.420;2023-10-08T15:40:07;17.20;42.60
81212;DHT22;70686;52.494;13.420;2023-10-08T15:42:34;17.10;42.30
81212;DHT22;70686;52.494;13.420;2023-10-08T15:45:01;17.00;42.90
81212;DHT22;70686;52.494;13.420;2023-10-08T15:47:28;17.00;41.80
81212;DHT22;70686;52.494;13.420;2023-10-08T15:49:54;17.10;42.00
81212;DHT22;70686;52.494;13.420;2023-10-08T15:52:19;16.90;43.00
81212;DHT22;70686;52.494;13.420;2023-10-08T15:54:48;16.70;43.70